sensor_id;sensor_type;location;lat;lon;timestamp;temperature;humidity
52787;DHT22;38661;53.152;5.846;2022-09-06T00:01:40;21.50;68.30
52787;DHT22;38661;53.152;5.846;2022-09-06T00:04:07;21.40;68.50
52787;DHT22;38661;53.152;5.846;2022-09-06T00:06:33;21.40;68.60
52787;DHT22;38661;53.152;5.846;2022-09-06T00:08:59;21.30;68.70
52787;DHT22;38661;53.152;5.846;2022-09-06T00:11:25;21.30;69.00
52787;DHT22;38661;53.152;5.846;2022-09-06T00:13:51;21.20;69.30
52787;DHT22;38661;53.152;5.846;2022-09-06T00:16:19;21.20;69.50
52787;DHT22;38661;53.152;5.846;2022-09-06T00:18:45;21.20;69.60
52787;DHT22;38661;53.152;5.846;2022-09-06T00:21:26;21.10;69.80
52787;DHT22;38661;53.152;5.846;2022-09-06T00:23:52;21.10;70.30
52787;DHT22;38661;53.152;5.846;2022-09-06T00:26:18;21.00;70.10
52787;DHT22;38661;53.152;5.846;2022-09-06T00:28:44;21.00;70.30
52787;DHT22;38661;53.152;5.846;2022-09-06T00:31:28;21.00;70.40
52787;DHT22;38661;53.152;5.846;2022-09-06T00:33:54;20.90;71.10
52787;DHT22;38661;53.152;5.846;2022-09-06T00:36:20;20.90;70.60
52787;DHT22;38661;53.152;5.846;2022-09-06T00:38:46;20.80;70.70
52787;DHT22;38661;53.152;5.846;2022-09-06T00:41:14;20.80;70.90
52787;DHT22;38661;53.152;5.846;2022-09-06T00:43:40;20.80;71.00
52787;DHT22;38661;53.152;5.846;2022-09-06T00:46:08;20.80;70.70
52787;DHT22;38661;53.152;5.846;2022-09-06T00:48:36;20.90;70.60
52787;DHT22;38661;53.152;5.846;2022-09-06T00:51:04;20.90;70.50
52787;DHT22;38661;53.152;5.846;2022-09-06T00:53:31;20.90;70.50
52787;DHT22;38661;53.152;5.846;2022-09-06T00:55:58;20.80;70.40
52787;DHT22;38661;53.152;5.846;2022-09-06T00:58:24;20.80;70.80
52787;DHT22;38661;53.152;5.846;2022-09-06T01:00:50;20.80;70.40
52787;DHT22;38661;53.152;5.846;2022-09-06T01:03:16;20.80;70.30
52787;DHT22;38661;53.152;5.846;2022-09-06T01:08:48;20.80;70.30
52787;DHT22;38661;53.152;5.846;2022-09-06T01:17:16;20.80;69.80
52787;DHT22;38661;53.152;5.846;2022-09-06T01:28:16;20.80;69.90
52787;DHT22;38661;53.152;5.846;2022-09-06T01:30:53;20.80;69.80
52787;DHT22;38661;53.152;5.846;2022-09-06T01:33:28;20.70;69.80
52787;DHT22;38661;53.152;5.846;2022-09-06T01:36:00;20.70;69.80
52787;DHT22;38661;53.152;5.846;2022-09-06T01:38:27;20.70;69.80
52787;DHT22;38661;53.152;5.846;2022-09-06T01:40:53;20.70;69.70
52787;DHT22;38661;53.152;5.846;2022-09-06T01:43:29;20.70;69.70
52787;DHT22;38661;53.152;5.846;2022-09-06T01:46:16;20.70;69.50
52787;DHT22;38661;53.152;5.846;2022-09-06T02:00:07;20.60;69.40
52787;DHT22;38661;53.152;5.846;2022-09-06T02:03:00;20.60;69.40
52787;DHT22;38661;53.152;5.846;2022-09-06T02:05:41;20.60;69.40
52787;DHT22;38661;53.152;5.846;2022-09-06T02:08:22;20.60;69.40
52787;DHT22;38661;53.152;5.846;2022-09-06T02:11:06;20.60;69.60
52787;DHT22;38661;53.152;5.846;2022-09-06T02:13:43;20.50;69.80
52787;DHT22;38661;53.152;5.846;2022-09-06T02:16:17;20.50;69.70
52787;DHT22;38661;53.152;5.846;2022-09-06T02:18:57;20.40;70.10
52787;DHT22;38661;53.152;5.846;2022-09-06T02:21:31;20.40;70.20
52787;DHT22;38661;53.152;5.846;2022-09-06T02:24:00;20.40;70.20
52787;DHT22;38661;53.152;5.846;2022-09-06T02:26:32;20.40;70.10
52787;DHT22;38661;53.152;5.846;2022-09-06T02:28:59;20.40;70.10
52787;DHT22;38661;53.152;5.846;2022-09-06T02:31:29;20.40;70.40
52787;DHT22;38661;53.152;5.846;2022-09-06T02:33:56;20.40;70.50
52787;DHT22;38661;53.152;5.846;2022-09-06T02:36:22;20.40;70.40
52787;DHT22;38661;53.152;5.846;2022-09-06T02:38:48;20.40;70.10
52787;DHT22;38661;53.152;5.846;2022-09-06T02:41:17;20.40;70.10
52787;DHT22;38661;53.152;5.846;2022-09-06T02:43:43;20.40;70.10
52787;DHT22;38661;53.152;5.846;2022-09-06T02:46:09;20.40;70.00
52787;DHT22;38661;53.152;5.846;2022-09-06T02:48:35;20.40;69.50
52787;DHT22;38661;53.152;5.846;2022-09-06T02:51:05;20.30;69.60
52787;DHT22;38661;53.152;5.846;2022-09-06T02:53:31;20.30;69.80
52787;DHT22;38661;53.152;5.846;2022-09-06T02:55:57;20.20;69.80
52787;DHT22;38661;53.152;5.846;2022-09-06T02:58:23;20.20;69.70
52787;DHT22;38661;53.152;5.846;2022-09-06T03:00:50;20.20;69.70
52787;DHT22;38661;53.152;5.846;2022-09-06T03:03:15;20.20;69.80
52787;DHT22;38661;53.152;5.846;2022-09-06T03:05:44;20.20;69.90
52787;DHT22;38661;53.152;5.846;2022-09-06T03:08:11;20.20;69.90
52787;DHT22;38661;53.152;5.846;2022-09-06T03:10:36;20.20;70.20
52787;DHT22;38661;53.152;5.846;2022-09-06T03:13:02;20.10;70.50
52787;DHT22;38661;53.152;5.846;2022-09-06T03:15:28;20.10;70.70
52787;DHT22;38661;53.152;5.846;2022-09-06T03:17:58;20.00;70.80
52787;DHT22;38661;53.152;5.846;2022-09-06T03:20:24;20.00;71.00
52787;DHT22;38661;53.152;5.846;2022-09-06T03:22:50;20.00;71.10
52787;DHT22;38661;53.152;5.846;2022-09-06T03:25:15;20.00;71.10
52787;DHT22;38661;53.152;5.846;2022-09-06T03:27:42;20.00;71.30
52787;DHT22;38661;53.152;5.846;2022-09-06T03:30:08;19.90;71.40
52787;DHT22;38661;53.152;5.846;2022-09-06T03:32:34;19.90;71.60
52787;DHT22;38661;53.152;5.846;2022-09-06T03:35:00;19.90;71.70
52787;DHT22;38661;53.152;5.846;2022-09-06T03:37:26;19.90;71.80
52787;DHT22;38661;53.152;5.846;2022-09-06T03:39:51;19.90;71.90
52787;DHT22;38661;53.152;5.846;2022-09-06T03:42:17;19.90;72.00
52787;DHT22;38661;53.152;5.846;2022-09-06T03:44:43;19.90;72.00
52787;DHT22;38661;53.152;5.846;2022-09-06T03:47:08;19.90;72.00
52787;DHT22;38661;53.152;5.846;2022-09-06T03:49:34;19.90;72.00
52787;DHT22;38661;53.152;5.846;2022-09-06T03:52:00;19.90;72.10
52787;DHT22;38661;53.152;5.846;2022-09-06T03:54:26;19.90;72.10
52787;DHT22;38661;53.152;5.846;2022-09-06T03:56:53;19.80;72.30
52787;DHT22;38661;53.152;5.846;2022-09-06T03:59:19;19.90;72.50
52787;DHT22;38661;53.152;5.846;2022-09-06T04:01:45;19.80;72.50
52787;DHT22;38661;53.152;5.846;2022-09-06T04:04:11;19.80;72.60
52787;DHT22;38661;53.152;5.846;2022-09-06T04:06:36;19.80;72.60
52787;DHT22;38661;53.152;5.846;2022-09-06T04:09:02;19.80;72.70
52787;DHT22;38661;53.152;5.846;2022-09-06T04:11:28;19.80;73.10
52787;DHT22;38661;53.152;5.846;2022-09-06T04:13:54;19.70;73.20
52787;DHT22;38661;53.152;5.846;2022-09-06T04:16:19;19.70;73.80
52787;DHT22;38661;53.152;5.846;2022-09-06T04:18:45;19.60;74.10
52787;DHT22;38661;53.152;5.846;2022-09-06T04:21:11;19.60;74.50
52787;DHT22;38661;53.152;5.846;2022-09-06T04:23:37;19.50;74.80
52787;DHT22;38661;53.152;5.846;2022-09-06T04:26:02;19.60;75.10
52787;DHT22;38661;53.152;5.846;2022-09-06T04:28:29;19.50;75.50
52787;DHT22;38661;53.152;5.846;2022-09-06T04:30:57;19.50;76.20
52787;DHT22;38661;53.152;5.846;2022-09-06T04:33:23;19.40;75.80
52787;DHT22;38661;53.152;5.846;2022-09-06T04:35:54;19.40;76.40
52787;DHT22;38661;53.152;5.846;2022-09-06T04:38:22;19.40;76.30
52787;DHT22;38661;53.152;5.846;2022-09-06T04:40:48;19.40;76.20
52787;DHT22;38661;53.152;5.846;2022-09-06T04:43:14;19.40;76.50
52787;DHT22;38661;53.152;5.846;2022-09-06T04:45:41;19.40;77.00
52787;DHT22;38661;53.152;5.846;2022-09-06T04:48:07;19.30;77.30
52787;DHT22;38661;53.152;5.846;2022-09-06T04:50:32;19.30;77.50
52787;DHT22;38661;53.152;5.846;2022-09-06T04:52:58;19.20;77.00
52787;DHT22;38661;53.152;5.846;2022-09-06T04:55:24;19.20;77.30
52787;DHT22;38661;53.152;5.846;2022-09-06T04:57:51;19.10;77.80
52787;DHT22;38661;53.152;5.846;2022-09-06T05:00:17;19.10;78.40
52787;DHT22;38661;53.152;5.846;2022-09-06T05:02:43;19.10;78.50
52787;DHT22;38661;53.152;5.846;2022-09-06T05:05:09;19.00;78.30
52787;DHT22;38661;53.152;5.846;2022-09-06T05:07:35;19.00;78.40
52787;DHT22;38661;53.152;5.846;2022-09-06T05:10:01;18.90;79.00
52787;DHT22;38661;53.152;5.846;2022-09-06T05:12:27;18.90;78.80
52787;DHT22;38661;53.152;5.846;2022-09-06T05:14:53;18.80;79.20
52787;DHT22;38661;53.152;5.846;2022-09-06T05:17:19;18.70;79.50
52787;DHT22;38661;53.152;5.846;2022-09-06T05:19:44;18.70;79.30
52787;DHT22;38661;53.152;5.846;2022-09-06T05:22:11;18.60;79.60
52787;DHT22;38661;53.152;5.846;2022-09-06T05:24:36;18.60;79.40
52787;DHT22;38661;53.152;5.846;2022-09-06T05:27:02;18.70;79.50
52787;DHT22;38661;53.152;5.846;2022-09-06T05:29:30;18.60;79.90
52787;DHT22;38661;53.152;5.846;2022-09-06T05:31:56;18.60;79.50
52787;DHT22;38661;53.152;5.846;2022-09-06T05:34:21;18.60;80.00
52787;DHT22;38661;53.152;5.846;2022-09-06T05:36:47;18.70;80.00
52787;DHT22;38661;53.152;5.846;2022-09-06T05:39:13;18.70;80.10
52787;DHT22;38661;53.152;5.846;2022-09-06T05:41:38;18.70;80.00
52787;DHT22;38661;53.152;5.846;2022-09-06T05:44:04;18.70;80.30
52787;DHT22;38661;53.152;5.846;2022-09-06T05:46:30;18.70;80.00
52787;DHT22;38661;53.152;5.846;2022-09-06T05:48:59;18.60;80.30
52787;DHT22;38661;53.152;5.846;2022-09-06T05:51:29;18.70;80.30
52787;DHT22;38661;53.152;5.846;2022-09-06T05:53:55;18.70;80.60
52787;DHT22;38661;53.152;5.846;2022-09-06T05:56:21;18.70;80.80
52787;DHT22;38661;53.152;5.846;2022-09-06T05:58:47;18.60;81.30
52787;DHT22;38661;53.152;5.846;2022-09-06T06:01:21;18.60;81.10
52787;DHT22;38661;53.152;5.846;2022-09-06T06:04:01;18.50;81.00
52787;DHT22;38661;53.152;5.846;2022-09-06T06:06:29;18.50;81.20
52787;DHT22;38661;53.152;5.846;2022-09-06T06:08:56;18.50;81.10
52787;DHT22;38661;53.152;5.846;2022-09-06T06:11:22;18.50;81.00
52787;DHT22;38661;53.152;5.846;2022-09-06T06:13:48;18.50;81.00
52787;DHT22;38661;53.152;5.846;2022-09-06T06:16:16;18.50;81.10
52787;DHT22;38661;53.152;5.846;2022-09-06T06:18:42;18.40;81.20
52787;DHT22;38661;53.152;5.846;2022-09-06T06:21:15;18.40;81.40
52787;DHT22;38661;53.152;5.846;2022-09-06T06:23:43;18.50;81.50
52787;DHT22;38661;53.152;5.846;2022-09-06T06:26:10;18.50;81.70
52787;DHT22;38661;53.152;5.846;2022-09-06T06:28:37;18.40;81.70
52787;DHT22;38661;53.152;5.846;2022-09-06T06:31:04;18.40;81.70
52787;DHT22;38661;53.152;5.846;2022-09-06T06:33:30;18.40;81.50
52787;DHT22;38661;53.152;5.846;2022-09-06T06:38:43;18.50;81.30
52787;DHT22;38661;53.152;5.846;2022-09-06T06:41:11;18.50;81.50
52787;DHT22;38661;53.152;5.846;2022-09-06T06:43:37;18.50;81.40
52787;DHT22;38661;53.152;5.846;2022-09-06T06:46:03;18.60;81.20
52787;DHT22;38661;53.152;5.846;2022-09-06T06:48:29;18.70;80.80
52787;DHT22;38661;53.152;5.846;2022-09-06T06:50:54;18.70;80.80
52787;DHT22;38661;53.152;5.846;2022-09-06T06:53:20;18.80;80.70
52787;DHT22;38661;53.152;5.846;2022-09-06T06:55:49;18.90;80.50
52787;DHT22;38661;53.152;5.846;2022-09-06T06:58:15;18.90;80.30
52787;DHT22;38661;53.152;5.846;2022-09-06T07:00:42;19.00;80.30
52787;DHT22;38661;53.152;5.846;2022-09-06T07:03:08;19.00;80.00
52787;DHT22;38661;53.152;5.846;2022-09-06T07:05:34;19.10;79.70
52787;DHT22;38661;53.152;5.846;2022-09-06T07:08:00;19.20;79.20
52787;DHT22;38661;53.152;5.846;2022-09-06T07:10:26;19.20;78.80
52787;DHT22;38661;53.152;5.846;2022-09-06T07:12:52;19.20;78.70
52787;DHT22;38661;53.152;5.846;2022-09-06T07:15:18;19.30;79.00
52787;DHT22;38661;53.152;5.846;2022-09-06T07:17:43;19.30;78.90
52787;DHT22;38661;53.152;5.846;2022-09-06T07:20:10;19.40;78.90
52787;DHT22;38661;53.152;5.846;2022-09-06T07:22:36;19.40;78.50
52787;DHT22;38661;53.152;5.846;2022-09-06T07:25:04;19.50;78.60
52787;DHT22;38661;53.152;5.846;2022-09-06T07:27:29;19.60;78.00
52787;DHT22;38661;53.152;5.846;2022-09-06T07:29:55;19.70;77.50
52787;DHT22;38661;53.152;5.846;2022-09-06T07:32:21;19.80;77.00
52787;DHT22;38661;53.152;5.846;2022-09-06T07:34:47;19.90;76.90
52787;DHT22;38661;53.152;5.846;2022-09-06T07:37:12;19.90;77.20
52787;DHT22;38661;53.152;5.846;2022-09-06T07:39:38;20.00;76.90
52787;DHT22;38661;53.152;5.846;2022-09-06T07:42:04;20.00;76.70
52787;DHT22;38661;53.152;5.846;2022-09-06T07:44:31;20.00;76.80
52787;DHT22;38661;53.152;5.846;2022-09-06T07:46:56;19.90;77.40
52787;DHT22;38661;53.152;5.846;2022-09-06T07:49:22;19.90;77.10
52787;DHT22;38661;53.152;5.846;2022-09-06T07:51:47;19.90;76.90
52787;DHT22;38661;53.152;5.846;2022-09-06T07:54:13;20.00;77.20
52787;DHT22;38661;53.152;5.846;2022-09-06T07:56:39;20.10;77.00
52787;DHT22;38661;53.152;5.846;2022-09-06T07:59:05;20.30;76.80
52787;DHT22;38661;53.152;5.846;2022-09-06T08:01:35;20.40;76.40
52787;DHT22;38661;53.152;5.846;2022-09-06T08:04:12;20.60;76.50
52787;DHT22;38661;53.152;5.846;2022-09-06T08:06:43;20.70;76.00
52787;DHT22;38661;53.152;5.846;2022-09-06T08:09:10;20.90;75.60
52787;DHT22;38661;53.152;5.846;2022-09-06T08:11:37;20.90;74.70
52787;DHT22;38661;53.152;5.846;2022-09-06T08:14:04;21.00;74.70
52787;DHT22;38661;53.152;5.846;2022-09-06T08:16:32;21.10;74.30
52787;DHT22;38661;53.152;5.846;2022-09-06T08:19:00;21.20;74.00
52787;DHT22;38661;53.152;5.846;2022-09-06T08:21:30;21.20;73.80
52787;DHT22;38661;53.152;5.846;2022-09-06T08:24:01;21.30;73.80
52787;DHT22;38661;53.152;5.846;2022-09-06T08:26:29;21.40;73.80
52787;DHT22;38661;53.152;5.846;2022-09-06T08:28:59;21.50;73.40
52787;DHT22;38661;53.152;5.846;2022-09-06T08:31:27;21.60;73.30
52787;DHT22;38661;53.152;5.846;2022-09-06T08:33:54;21.80;73.10
52787;DHT22;38661;53.152;5.846;2022-09-06T08:36:19;21.90;72.70
52787;DHT22;38661;53.152;5.846;2022-09-06T08:38:45;22.00;72.30
52787;DHT22;38661;53.152;5.846;2022-09-06T08:41:26;22.20;72.10
52787;DHT22;38661;53.152;5.846;2022-09-06T08:43:54;22.40;71.80
52787;DHT22;38661;53.152;5.846;2022-09-06T08:46:47;22.50;71.60
52787;DHT22;38661;53.152;5.846;2022-09-06T08:49:10;22.50;71.10
52787;DHT22;38661;53.152;5.846;2022-09-06T08:51:45;22.60;70.60
52787;DHT22;38661;53.152;5.846;2022-09-06T08:54:37;22.70;70.50
52787;DHT22;38661;53.152;5.846;2022-09-06T08:59:40;23.00;70.00
52787;DHT22;38661;53.152;5.846;2022-09-06T09:02:20;23.10;69.70
52787;DHT22;38661;53.152;5.846;2022-09-06T09:09:51;23.40;68.10
52787;DHT22;38661;53.152;5.846;2022-09-06T09:12:22;23.50;68.30
52787;DHT22;38661;53.152;5.846;2022-09-06T09:14:51;23.60;67.90
52787;DHT22;38661;53.152;5.846;2022-09-06T09:17:24;23.80;67.70
52787;DHT22;38661;53.152;5.846;2022-09-06T09:19:51;23.90;67.20
52787;DHT22;38661;53.152;5.846;2022-09-06T09:22:18;24.00;67.20
52787;DHT22;38661;53.152;5.846;2022-09-06T09:24:47;24.20;67.00
52787;DHT22;38661;53.152;5.846;2022-09-06T09:27:19;24.30;66.60
52787;DHT22;38661;53.152;5.846;2022-09-06T09:32:43;24.50;65.00
52787;DHT22;38661;53.152;5.846;2022-09-06T09:35:32;24.60;64.60
52787;DHT22;38661;53.152;5.846;2022-09-06T09:38:06;24.80;64.40
52787;DHT22;38661;53.152;5.846;2022-09-06T09:40:35;24.90;63.50
52787;DHT22;38661;53.152;5.846;2022-09-06T09:43:16;24.90;63.00
52787;DHT22;38661;53.152;5.846;2022-09-06T09:45:44;25.00;62.10
52787;DHT22;38661;53.152;5.846;2022-09-06T09:48:27;25.20;62.10
52787;DHT22;38661;53.152;5.846;2022-09-06T09:50:53;25.30;61.30
52787;DHT22;38661;53.152;5.846;2022-09-06T09:53:21;25.40;61.80
52787;DHT22;38661;53.152;5.846;2022-09-06T09:55:54;25.50;61.20
52787;DHT22;38661;53.152;5.846;2022-09-06T10:00:46;25.80;60.80
52787;DHT22;38661;53.152;5.846;2022-09-06T10:03:13;25.80;59.50
52787;DHT22;38661;53.152;5.846;2022-09-06T10:05:40;25.80;58.80
52787;DHT22;38661;53.152;5.846;2022-09-06T10:08:11;25.90;58.40
52787;DHT22;38661;53.152;5.846;2022-09-06T10:10:45;25.90;57.10
52787;DHT22;38661;53.152;5.846;2022-09-06T10:15:43;26.20;57.10
52787;DHT22;38661;53.152;5.846;2022-09-06T10:18:16;26.40;57.30
52787;DHT22;38661;53.152;5.846;2022-09-06T10:21:04;26.50;56.60
52787;DHT22;38661;53.152;5.846;2022-09-06T10:26:54;26.90;56.50
52787;DHT22;38661;53.152;5.846;2022-09-06T10:34:54;27.20;55.10
52787;DHT22;38661;53.152;5.846;2022-09-06T10:43:15;27.50;53.10
52787;DHT22;38661;53.152;5.846;2022-09-06T10:48:32;27.80;52.70
52787;DHT22;38661;53.152;5.846;2022-09-06T10:51:05;27.90;53.20
52787;DHT22;38661;53.152;5.846;2022-09-06T11:01:40;28.10;52.50
52787;DHT22;38661;53.152;5.846;2022-09-06T11:04:10;28.20;52.80
52787;DHT22;38661;53.152;5.846;2022-09-06T11:06:42;28.40;52.30
52787;DHT22;38661;53.152;5.846;2022-09-06T11:09:17;28.40;52.20
52787;DHT22;38661;53.152;5.846;2022-09-06T11:12:09;28.60;52.30
52787;DHT22;38661;53.152;5.846;2022-09-06T11:14:38;28.70;49.70
52787;DHT22;38661;53.152;5.846;2022-09-06T11:17:13;28.80;49.60
52787;DHT22;38661;53.152;5.846;2022-09-06T11:19:59;28.90;49.00
52787;DHT22;38661;53.152;5.846;2022-09-06T11:27:56;29.20;47.50
52787;DHT22;38661;53.152;5.846;2022-09-06T11:30:24;29.20;48.50
52787;DHT22;38661;53.152;5.846;2022-09-06T11:33:17;29.30;48.20
52787;DHT22;38661;53.152;5.846;2022-09-06T11:35:45;29.50;48.40
52787;DHT22;38661;53.152;5.846;2022-09-06T11:40:48;29.60;46.90
52787;DHT22;38661;53.152;5.846;2022-09-06T11:43:45;29.60;47.10
52787;DHT22;38661;53.152;5.846;2022-09-06T11:49:07;29.90;44.70
52787;DHT22;38661;53.152;5.846;2022-09-06T11:51:43;30.00;46.10
52787;DHT22;38661;53.152;5.846;2022-09-06T12:02:05;30.20;45.90
52787;DHT22;38661;53.152;5.846;2022-09-06T12:07:36;30.30;46.30
52787;DHT22;38661;53.152;5.846;2022-09-06T12:12:56;30.30;46.40
52787;DHT22;38661;53.152;5.846;2022-09-06T12:15:43;30.30;45.90
52787;DHT22;38661;53.152;5.846;2022-09-06T12:21:53;30.20;45.90
52787;DHT22;38661;53.152;5.846;2022-09-06T12:23:53;30.30;45.80
52787;DHT22;38661;53.152;5.846;2022-09-06T12:26:48;30.30;45.70
52787;DHT22;38661;53.152;5.846;2022-09-06T12:29:25;30.20;44.40
52787;DHT22;38661;53.152;5.846;2022-09-06T12:32:01;30.40;44.40
52787;DHT22;38661;53.152;5.846;2022-09-06T12:34:30;30.60;44.40
52787;DHT22;38661;53.152;5.846;2022-09-06T12:37:06;30.50;43.90
52787;DHT22;38661;53.152;5.846;2022-09-06T12:39:33;30.30;43.60
52787;DHT22;38661;53.152;5.846;2022-09-06T12:42:19;30.30;44.00
52787;DHT22;38661;53.152;5.846;2022-09-06T12:44:48;30.20;43.50
52787;DHT22;38661;53.152;5.846;2022-09-06T12:47:23;30.50;43.80
52787;DHT22;38661;53.152;5.846;2022-09-06T12:50:12;30.30;43.60
52787;DHT22;38661;53.152;5.846;2022-09-06T12:53:00;30.10;44.20
52787;DHT22;38661;53.152;5.846;2022-09-06T12:57:58;29.90;43.70
52787;DHT22;38661;53.152;5.846;2022-09-06T13:00:27;29.60;44.70
52787;DHT22;38661;53.152;5.846;2022-09-06T13:05:38;29.10;47.40
52787;DHT22;38661;53.152;5.846;2022-09-06T13:08:11;29.40;46.80
52787;DHT22;38661;53.152;5.846;2022-09-06T13:10:39;29.40;46.90
52787;DHT22;38661;53.152;5.846;2022-09-06T13:13:06;29.30;46.70
52787;DHT22;38661;53.152;5.846;2022-09-06T13:15:32;29.20;46.90
52787;DHT22;38661;53.152;5.846;2022-09-06T13:18:18;29.40;46.40
52787;DHT22;38661;53.152;5.846;2022-09-06T13:20:44;29.50;45.90
52787;DHT22;38661;53.152;5.846;2022-09-06T13:23:21;29.60;46.00
52787;DHT22;38661;53.152;5.846;2022-09-06T13:25:49;29.80;45.30
52787;DHT22;38661;53.152;5.846;2022-09-06T13:28:30;29.60;45.50
52787;DHT22;38661;53.152;5.846;2022-09-06T13:31:11;30.00;44.30
52787;DHT22;38661;53.152;5.846;2022-09-06T13:33:39;30.20;43.20
52787;DHT22;38661;53.152;5.846;2022-09-06T13:43:47;30.50;40.70
52787;DHT22;38661;53.152;5.846;2022-09-06T13:46:12;30.40;41.70
52787;DHT22;38661;53.152;5.846;2022-09-06T13:48:38;30.40;42.20
52787;DHT22;38661;53.152;5.846;2022-09-06T13:51:08;30.60;41.70
52787;DHT22;38661;53.152;5.846;2022-09-06T13:53:34;30.60;42.00
52787;DHT22;38661;53.152;5.846;2022-09-06T13:56:00;30.40;43.30
52787;DHT22;38661;53.152;5.846;2022-09-06T13:58:26;30.70;43.50
52787;DHT22;38661;53.152;5.846;2022-09-06T14:00:53;30.50;43.10
52787;DHT22;38661;53.152;5.846;2022-09-06T14:03:22;30.80;42.80
52787;DHT22;38661;53.152;5.846;2022-09-06T14:05:49;30.60;43.10
52787;DHT22;38661;53.152;5.846;2022-09-06T14:08:15;30.30;43.90
52787;DHT22;38661;53.152;5.846;2022-09-06T14:10:41;30.60;43.90
52787;DHT22;38661;53.152;5.846;2022-09-06T14:13:07;30.80;43.80
52787;DHT22;38661;53.152;5.846;2022-09-06T14:15:33;30.70;43.90
52787;DHT22;38661;53.152;5.846;2022-09-06T14:17:59;30.80;44.00
52787;DHT22;38661;53.152;5.846;2022-09-06T14:20:25;30.80;44.20
52787;DHT22;38661;53.152;5.846;2022-09-06T14:22:50;30.70;44.10
52787;DHT22;38661;53.152;5.846;2022-09-06T14:25:16;30.60;44.70
52787;DHT22;38661;53.152;5.846;2022-09-06T14:27:42;30.80;45.00
52787;DHT22;38661;53.152;5.846;2022-09-06T14:30:08;30.90;44.00
52787;DHT22;38661;53.152;5.846;2022-09-06T14:32:34;30.80;44.20
52787;DHT22;38661;53.152;5.846;2022-09-06T14:35:00;30.60;44.70
52787;DHT22;38661;53.152;5.846;2022-09-06T14:37:27;30.80;44.80
52787;DHT22;38661;53.152;5.846;2022-09-06T14:39:52;31.00;44.10
52787;DHT22;38661;53.152;5.846;2022-09-06T14:42:18;31.10;44.10
52787;DHT22;38661;53.152;5.846;2022-09-06T14:44:44;31.00;44.00
52787;DHT22;38661;53.152;5.846;2022-09-06T14:47:10;31.00;44.40
52787;DHT22;38661;53.152;5.846;2022-09-06T14:49:36;30.50;45.30
52787;DHT22;38661;53.152;5.846;2022-09-06T14:52:02;30.50;45.50
52787;DHT22;38661;53.152;5.846;2022-09-06T14:54:28;30.80;45.40
52787;DHT22;38661;53.152;5.846;2022-09-06T14:56:53;31.00;45.10
52787;DHT22;38661;53.152;5.846;2022-09-06T14:59:19;31.10;44.60
52787;DHT22;38661;53.152;5.846;2022-09-06T15:01:45;31.10;44.00
52787;DHT22;38661;53.152;5.846;2022-09-06T15:04:10;31.30;44.00
52787;DHT22;38661;53.152;5.846;2022-09-06T15:06:37;31.40;44.00
52787;DHT22;38661;53.152;5.846;2022-09-06T15:09:05;31.30;44.30
52787;DHT22;38661;53.152;5.846;2022-09-06T15:11:33;31.30;44.30
52787;DHT22;38661;53.152;5.846;2022-09-06T15:14:00;31.10;44.90
52787;DHT22;38661;53.152;5.846;2022-09-06T15:16:27;30.80;44.90
52787;DHT22;38661;53.152;5.846;2022-09-06T15:18:53;30.20;46.00
52787;DHT22;38661;53.152;5.846;2022-09-06T15:21:20;30.00;46.00
52787;DHT22;38661;53.152;5.846;2022-09-06T15:23:46;29.80;46.70
52787;DHT22;38661;53.152;5.846;2022-09-06T15:26:13;29.80;47.40
52787;DHT22;38661;53.152;5.846;2022-09-06T15:28:41;29.90;47.40
52787;DHT22;38661;53.152;5.846;2022-09-06T15:31:08;29.90;46.80
52787;DHT22;38661;53.152;5.846;2022-09-06T15:33:36;29.50;47.80
52787;DHT22;38661;53.152;5.846;2022-09-06T15:36:03;29.40;48.20
52787;DHT22;38661;53.152;5.846;2022-09-06T15:38:40;29.30;48.40
52787;DHT22;38661;53.152;5.846;2022-09-06T15:41:26;29.00;49.70
52787;DHT22;38661;53.152;5.846;2022-09-06T15:43:54;28.90;49.80
52787;DHT22;38661;53.152;5.846;2022-09-06T15:46:49;28.60;49.90
52787;DHT22;38661;53.152;5.846;2022-09-06T15:49:27;28.60;50.50
52787;DHT22;38661;53.152;5.846;2022-09-06T15:51:54;28.50;51.00
52787;DHT22;38661;53.152;5.846;2022-09-06T15:54:21;28.40;51.20
52787;DHT22;38661;53.152;5.846;2022-09-06T15:57:07;28.20;51.70
52787;DHT22;38661;53.152;5.846;2022-09-06T15:59:33;28.10;52.10
52787;DHT22;38661;53.152;5.846;2022-09-06T16:01:58;28.10;52.10
52787;DHT22;38661;53.152;5.846;2022-09-06T16:04:24;28.00;52.20
52787;DHT22;38661;53.152;5.846;2022-09-06T16:06:50;28.10;52.20
52787;DHT22;38661;53.152;5.846;2022-09-06T16:09:16;28.00;52.50
52787;DHT22;38661;53.152;5.846;2022-09-06T16:11:42;28.10;52.30
52787;DHT22;38661;53.152;5.846;2022-09-06T16:14:11;28.20;52.30
52787;DHT22;38661;53.152;5.846;2022-09-06T16:16:37;28.30;52.40
52787;DHT22;38661;53.152;5.846;2022-09-06T16:19:04;28.40;51.90
52787;DHT22;38661;53.152;5.846;2022-09-06T16:21:31;28.20;52.20
52787;DHT22;38661;53.152;5.846;2022-09-06T16:24:02;28.30;52.10
52787;DHT22;38661;53.152;5.846;2022-09-06T16:26:31;28.40;51.70
52787;DHT22;38661;53.152;5.846;2022-09-06T16:28:58;28.00;52.50
52787;DHT22;38661;53.152;5.846;2022-09-06T16:31:24;27.90;52.60
52787;DHT22;38661;53.152;5.846;2022-09-06T16:33:51;27.60;53.30
52787;DHT22;38661;53.152;5.846;2022-09-06T16:36:18;27.50;53.20
52787;DHT22;38661;53.152;5.846;2022-09-06T16:38:45;27.20;54.20
52787;DHT22;38661;53.152;5.846;2022-09-06T16:44:05;27.10;54.50
52787;DHT22;38661;53.152;5.846;2022-09-06T16:46:31;27.00;55.10
52787;DHT22;38661;53.152;5.846;2022-09-06T16:48:58;26.90;55.50
52787;DHT22;38661;53.152;5.846;2022-09-06T16:51:29;26.80;55.80
52787;DHT22;38661;53.152;5.846;2022-09-06T16:53:59;26.50;56.40
52787;DHT22;38661;53.152;5.846;2022-09-06T16:56:27;26.40;56.60
52787;DHT22;38661;53.152;5.846;2022-09-06T16:58:58;26.30;56.80
52787;DHT22;38661;53.152;5.846;2022-09-06T17:01:26;26.10;57.20
52787;DHT22;38661;53.152;5.846;2022-09-06T17:03:52;26.10;57.40
52787;DHT22;38661;53.152;5.846;2022-09-06T17:06:19;26.00;57.80
52787;DHT22;38661;53.152;5.846;2022-09-06T17:08:46;25.90;58.30
52787;DHT22;38661;53.152;5.846;2022-09-06T17:11:17;25.80;58.90
52787;DHT22;38661;53.152;5.846;2022-09-06T17:13:44;25.70;59.20
52787;DHT22;38661;53.152;5.846;2022-09-06T17:16:11;25.60;59.80
52787;DHT22;38661;53.152;5.846;2022-09-06T17:18:57;25.60;60.50
52787;DHT22;38661;53.152;5.846;2022-09-06T17:21:23;25.50;61.00
52787;DHT22;38661;53.152;5.846;2022-09-06T17:23:49;25.50;61.60
52787;DHT22;38661;53.152;5.846;2022-09-06T17:26:17;25.30;61.80
52787;DHT22;38661;53.152;5.846;2022-09-06T17:28:46;25.30;62.10
52787;DHT22;38661;53.152;5.846;2022-09-06T17:31:12;25.30;62.50
52787;DHT22;38661;53.152;5.846;2022-09-06T17:33:38;25.40;62.60
52787;DHT22;38661;53.152;5.846;2022-09-06T17:36:05;25.30;63.00
52787;DHT22;38661;53.152;5.846;2022-09-06T17:38:32;25.20;63.40